PAQH

Details ICAO PAQH (KWN)
Name Quinhagak
Region USA (Alaska)
Timezone America/Anchorage (UTC-9.0)
Plans Departing 4
Arriving 6
Stats Elevation 10 ft / 3 m (AMSL)
Location 59.757007° -161.879479°
Runways 1
Magnetic Variation 11.403° E
Sunrise 2017-12-11 19:39:37 UTC / 2017-12-11 10:39:37 Local
Sunset 2017-12-12 01:45:15 UTC / 2017-12-11 16:45:15 Local
Advertisement - Login to hide

Runways

ID Width Length Bearing (true) Bearing (mag) Surface Threshold Offset Overrun Length
04 59 ft / 18 m 2,602 ft / 793 m 57.99° 46.59° Gravel 0 ft / 0 m 0 ft / 0 m
22 59 ft / 18 m 2,602 ft / 793 m 238.01° 226.61° Gravel 0 ft / 0 m 0 ft / 0 m

Map

Weather


0- 5 10 15 20 25 30 35+ Temperature / ° C

Clouds and Precipitation
Forecast for 2017-12-11 18:00 UTC. Updated 10 minutes ago

Ground ~20,000 ft ~40,000 ft Winds

METAR

PAQH 111456Z AUTO 32009KT 10SM CLR M06/M07 A2896 RMK AO2 SLP806 T10561067 53013 PWINO FZRANO

TAF

Not found
Warning: Do not use this data for real-world aviation or navigation. No guarantee of current accuracy is given.